Terminal Aerodrome Forecast
Issued by NWS

Home | Current Version | Previous Version | Text Only | Print | Product List | Glossary On
Versions: 1 2 3 4 5 6 7 8 9 10 11 12 13 14 15 16 17 18 19 20 21 22 23 24 25 26 27 28 29 30
000
FTUS45 KVEF 261437 AAA
TAFLAS
TAF AMD
KLAS 261437Z 2615/2712 21012KT P6SM SKC
     FM261800 22015G25KT P6SM SKC
     FM262000 22020G30KT P6SM SKC
     FM270300 23016G25KT P6SM SKC
     FM270800 24011G20KT P6SM SKC=

USA.gov is the U.S. government's official web portal to all federal, state and local government web resources and services.